This is the latest recevied weather packets stored in our database for station/object HP1CDW-13. If no packets are shown the sender has not sent any weather packets the latest 10 day(s).
| Time | Temp. | Humidity | Pressure | Rain* | Wind** | Luminosity | Snow |
|---|---|---|---|---|---|---|---|
| 1778259290 | 33.33° C | 64% | 1012.9 hPa | 0 mm | - | - | - |
| 1778258690 | 33.33° C | 63% | 1013.1 hPa | 0 mm | - | - | - |
| 1778258090 | 33.33° C | 63% | 1013.1 hPa | 0 mm | - | - | - |
| 1778257490 | 33.33° C | 65% | 1013.3 hPa | 0 mm | - | - | - |
| 1778256890 | 32.78° C | 65% | 1013.2 hPa | 0 mm | - | - | - |
| 1778256290 | 33.89° C | 62% | 1013.3 hPa | 0 mm | - | - | - |
| 1778255690 | 33.89° C | 61% | 1013.4 hPa | 0 mm | - | - | - |
| 1778255090 | 33.33° C | 65% | 1013.7 hPa | 0 mm | - | - | - |
| 1778254490 | 32.78° C | 66% | 1013.6 hPa | 0 mm | - | - | - |
| 1778253890 | 32.78° C | 66% | 1014 hPa | 0 mm | - | - | - |
| 1778253290 | 32.78° C | 68% | 1013.9 hPa | 0 mm | - | - | - |
| 1778252690 | 32.78° C | 70% | 1013.9 hPa | 0 mm | - | - | - |
| 1778252090 | 32.78° C | 69% | 1014.1 hPa | 0 mm | - | - | - |
| 1778251490 | 31.67° C | 72% | 1014.3 hPa | 0 mm | - | - | - |
| 1778250890 | 31.11° C | 73% | 1014.5 hPa | 0 mm | - | - | - |
| 1778250290 | 31.11° C | 74% | 1014.5 hPa | 0 mm | - | - | - |
| 1778249690 | 31.11° C | 73% | 1014.4 hPa | 0 mm | - | - | - |
| 1778249090 | 31.11° C | 71% | 1014.6 hPa | 0 mm | - | - | - |
| 1778248490 | 31.67° C | 69% | 1014.6 hPa | 0 mm | - | - | - |
| 1778247890 | 31.11° C | 73% | 1014.3 hPa | 0 mm | - | - | - |
| 1778247290 | 31.11° C | 72% | 1014.4 hPa | 0 mm | - | - | - |
| 1778246690 | 30.56° C | 74% | 1014.4 hPa | 0 mm | - | - | - |
| 1778246090 | 30.56° C | 75% | 1014.5 hPa | 0 mm | - | - | - |
| 1778245490 | 30° C | 76% | 1014.2 hPa | 0 mm | - | - | - |
| 1778244890 | 29.44° C | 78% | 1014 hPa | 0 mm | - | - | - |
* Rain latest hour (hover to see other rain measurements)
** Current wind speed in m/s (hover to see current wind gust speed)